sensor_id;sensor_type;location;lat;lon;timestamp;temperature;humidity
6178;DHT22;3122;48.208;11.174;2023-01-05T00:00:24;9.30;1.00
6178;DHT22;3122;48.208;11.174;2023-01-05T00:05:24;9.20;1.00
6178;DHT22;3122;48.208;11.174;2023-01-05T00:10:25;9.30;1.00
6178;DHT22;3122;48.208;11.174;2023-01-05T00:15:44;9.10;1.00
6178;DHT22;3122;48.208;11.174;2023-01-05T00:21:11;9.20;1.00
6178;DHT22;3122;48.208;11.174;2023-01-05T00:26:30;9.20;1.00
6178;DHT22;3122;48.208;11.174;2023-01-05T00:31:31;9.20;1.00
6178;DHT22;3122;48.208;11.174;2023-01-05T00:36:32;9.20;1.00
6178;DHT22;3122;48.208;11.174;2023-01-05T00:41:32;9.20;1.00
6178;DHT22;3122;48.208;11.174;2023-01-05T00:46:33;9.20;1.00
6178;DHT22;3122;48.208;11.174;2023-01-05T00:51:33;9.20;1.00
6178;DHT22;3122;48.208;11.174;2023-01-05T00:56:34;9.30;1.00
6178;DHT22;3122;48.208;11.174;2023-01-05T01:01:35;9.30;1.00
6178;DHT22;3122;48.208;11.174;2023-01-05T01:06:35;9.30;1.00
6178;DHT22;3122;48.208;11.174;2023-01-05T01:11:36;9.30;1.00
6178;DHT22;3122;48.208;11.174;2023-01-05T01:16:37;9.30;1.00
6178;DHT22;3122;48.208;11.174;2023-01-05T01:21:37;9.30;1.00
6178;DHT22;3122;48.208;11.174;2023-01-05T01:26:38;9.30;1.00
6178;DHT22;3122;48.208;11.174;2023-01-05T01:31:38;9.30;1.00
6178;DHT22;3122;48.208;11.174;2023-01-05T01:36:39;9.40;1.00
6178;DHT22;3122;48.208;11.174;2023-01-05T01:41:39;9.30;1.00
6178;DHT22;3122;48.208;11.174;2023-01-05T01:46:40;9.40;1.00
6178;DHT22;3122;48.208;11.174;2023-01-05T01:51:44;9.40;1.00
6178;DHT22;3122;48.208;11.174;2023-01-05T01:56:51;9.40;1.00
6178;DHT22;3122;48.208;11.174;2023-01-05T02:01:56;9.30;1.00
6178;DHT22;3122;48.208;11.174;2023-01-05T02:06:59;9.40;1.00
6178;DHT22;3122;48.208;11.174;2023-01-05T02:18:19;9.50;1.00
6178;DHT22;3122;48.208;11.174;2023-01-05T02:23:09;9.50;1.00
6178;DHT22;3122;48.208;11.174;2023-01-05T02:39:14;9.40;1.00
6178;DHT22;3122;48.208;11.174;2023-01-05T02:44:17;9.40;1.00
6178;DHT22;3122;48.208;11.174;2023-01-05T02:49:18;9.20;1.00
6178;DHT22;3122;48.208;11.174;2023-01-05T02:54:26;9.10;1.00
6178;DHT22;3122;48.208;11.174;2023-01-05T02:59:35;9.00;1.00
6178;DHT22;3122;48.208;11.174;2023-01-05T03:04:42;8.90;1.00
6178;DHT22;3122;48.208;11.174;2023-01-05T03:09:45;8.90;1.00
6178;DHT22;3122;48.208;11.174;2023-01-05T03:15:00;8.80;1.00
6178;DHT22;3122;48.208;11.174;2023-01-05T03:20:03;8.90;1.00
6178;DHT22;3122;48.208;11.174;2023-01-05T03:25:06;8.80;1.00
6178;DHT22;3122;48.208;11.174;2023-01-05T03:30:35;8.90;1.00
6178;DHT22;3122;48.208;11.174;2023-01-05T03:35:58;8.90;1.00
6178;DHT22;3122;48.208;11.174;2023-01-05T03:41:02;9.00;1.00
6178;DHT22;3122;48.208;11.174;2023-01-05T03:46:14;9.00;1.00
6178;DHT22;3122;48.208;11.174;2023-01-05T03:51:16;9.00;1.00
6178;DHT22;3122;48.208;11.174;2023-01-05T03:56:17;9.10;1.00
6178;DHT22;3122;48.208;11.174;2023-01-05T04:01:18;9.10;1.00
6178;DHT22;3122;48.208;11.174;2023-01-05T04:06:18;9.20;1.00
6178;DHT22;3122;48.208;11.174;2023-01-05T04:11:21;9.30;1.00
6178;DHT22;3122;48.208;11.174;2023-01-05T04:16:22;9.40;1.00
6178;DHT22;3122;48.208;11.174;2023-01-05T04:21:23;9.50;1.00
6178;DHT22;3122;48.208;11.174;2023-01-05T04:26:24;9.40;1.00
6178;DHT22;3122;48.208;11.174;2023-01-05T04:31:24;9.50;1.00
6178;DHT22;3122;48.208;11.174;2023-01-05T04:36:25;9.50;1.00
6178;DHT22;3122;48.208;11.174;2023-01-05T04:41:25;9.50;1.00
6178;DHT22;3122;48.208;11.174;2023-01-05T04:46:26;9.50;1.00
6178;DHT22;3122;48.208;11.174;2023-01-05T04:51:26;9.50;1.00
6178;DHT22;3122;48.208;11.174;2023-01-05T04:56:27;9.50;1.00
6178;DHT22;3122;48.208;11.174;2023-01-05T05:01:27;9.50;1.00
6178;DHT22;3122;48.208;11.174;2023-01-05T05:06:28;9.50;1.00
6178;DHT22;3122;48.208;11.174;2023-01-05T05:11:28;9.50;1.00
6178;DHT22;3122;48.208;11.174;2023-01-05T05:16:29;9.50;1.00
6178;DHT22;3122;48.208;11.174;2023-01-05T05:21:31;9.50;1.00
6178;DHT22;3122;48.208;11.174;2023-01-05T05:26:31;9.50;1.00
6178;DHT22;3122;48.208;11.174;2023-01-05T05:31:32;9.60;1.00
6178;DHT22;3122;48.208;11.174;2023-01-05T05:36:32;9.60;1.00
6178;DHT22;3122;48.208;11.174;2023-01-05T05:41:33;9.60;1.00
6178;DHT22;3122;48.208;11.174;2023-01-05T05:46:34;9.50;1.00
6178;DHT22;3122;48.208;11.174;2023-01-05T05:51:35;9.50;1.00
6178;DHT22;3122;48.208;11.174;2023-01-05T05:56:35;9.50;1.00
6178;DHT22;3122;48.208;11.174;2023-01-05T06:01:36;9.60;1.00
6178;DHT22;3122;48.208;11.174;2023-01-05T06:06:36;9.50;1.00
6178;DHT22;3122;48.208;11.174;2023-01-05T06:11:38;9.60;1.00
6178;DHT22;3122;48.208;11.174;2023-01-05T06:16:38;9.60;1.00
6178;DHT22;3122;48.208;11.174;2023-01-05T06:21:39;9.60;1.00
6178;DHT22;3122;48.208;11.174;2023-01-05T06:26:39;9.60;1.00
6178;DHT22;3122;48.208;11.174;2023-01-05T06:31:40;9.60;1.00
6178;DHT22;3122;48.208;11.174;2023-01-05T06:36:40;9.60;1.00
6178;DHT22;3122;48.208;11.174;2023-01-05T06:41:41;9.60;1.00
6178;DHT22;3122;48.208;11.174;2023-01-05T06:46:42;9.70;1.00
6178;DHT22;3122;48.208;11.174;2023-01-05T06:51:42;9.70;1.00
6178;DHT22;3122;48.208;11.174;2023-01-05T06:56:43;9.60;1.00
6178;DHT22;3122;48.208;11.174;2023-01-05T07:01:43;9.60;1.00
6178;DHT22;3122;48.208;11.174;2023-01-05T07:06:44;9.50;1.00
6178;DHT22;3122;48.208;11.174;2023-01-05T07:11:44;9.40;1.00
6178;DHT22;3122;48.208;11.174;2023-01-05T07:16:45;9.50;1.00
6178;DHT22;3122;48.208;11.174;2023-01-05T07:21:45;9.50;1.00
6178;DHT22;3122;48.208;11.174;2023-01-05T07:26:46;9.50;1.00
6178;DHT22;3122;48.208;11.174;2023-01-05T07:31:47;9.60;1.00
6178;DHT22;3122;48.208;11.174;2023-01-05T07:36:51;9.60;1.00
6178;DHT22;3122;48.208;11.174;2023-01-05T07:41:51;9.60;1.00
6178;DHT22;3122;48.208;11.174;2023-01-05T07:46:52;9.60;1.00
6178;DHT22;3122;48.208;11.174;2023-01-05T07:51:53;9.60;1.00
6178;DHT22;3122;48.208;11.174;2023-01-05T07:56:53;9.60;1.00
6178;DHT22;3122;48.208;11.174;2023-01-05T08:01:54;9.60;1.00
6178;DHT22;3122;48.208;11.174;2023-01-05T08:06:54;9.70;1.00
6178;DHT22;3122;48.208;11.174;2023-01-05T08:11:55;9.50;1.00
6178;DHT22;3122;48.208;11.174;2023-01-05T08:16:56;9.40;1.00
6178;DHT22;3122;48.208;11.174;2023-01-05T08:21:56;9.30;1.00
6178;DHT22;3122;48.208;11.174;2023-01-05T08:26:57;9.20;1.00
6178;DHT22;3122;48.208;11.174;2023-01-05T08:31:57;9.10;1.00
6178;DHT22;3122;48.208;11.174;2023-01-05T08:36:58;8.90;1.00
6178;DHT22;3122;48.208;11.174;2023-01-05T08:41:58;9.10;1.00
6178;DHT22;3122;48.208;11.174;2023-01-05T08:46:59;9.10;1.00
6178;DHT22;3122;48.208;11.174;2023-01-05T08:51:59;9.10;1.00
6178;DHT22;3122;48.208;11.174;2023-01-05T08:57:00;9.20;1.00
6178;DHT22;3122;48.208;11.174;2023-01-05T09:02:01;9.30;1.00
6178;DHT22;3122;48.208;11.174;2023-01-05T09:07:01;9.40;1.00
6178;DHT22;3122;48.208;11.174;2023-01-05T09:12:02;9.50;1.00
6178;DHT22;3122;48.208;11.174;2023-01-05T09:17:03;9.50;1.00
6178;DHT22;3122;48.208;11.174;2023-01-05T09:22:03;9.60;1.00
6178;DHT22;3122;48.208;11.174;2023-01-05T09:27:04;9.70;1.00
6178;DHT22;3122;48.208;11.174;2023-01-05T09:32:06;9.70;1.00
6178;DHT22;3122;48.208;11.174;2023-01-05T09:37:07;9.80;1.00
6178;DHT22;3122;48.208;11.174;2023-01-05T09:42:19;9.80;1.00
6178;DHT22;3122;48.208;11.174;2023-01-05T09:47:40;9.80;1.00
6178;DHT22;3122;48.208;11.174;2023-01-05T09:52:41;9.90;1.00
6178;DHT22;3122;48.208;11.174;2023-01-05T09:57:51;9.90;1.00
6178;DHT22;3122;48.208;11.174;2023-01-05T10:02:57;10.00;1.00
6178;DHT22;3122;48.208;11.174;2023-01-05T10:08:03;10.00;1.00
6178;DHT22;3122;48.208;11.174;2023-01-05T10:13:06;10.00;1.00
6178;DHT22;3122;48.208;11.174;2023-01-05T10:18:13;10.10;1.00
6178;DHT22;3122;48.208;11.174;2023-01-05T10:28:47;10.10;1.00
6178;DHT22;3122;48.208;11.174;2023-01-05T10:33:50;10.10;1.00
6178;DHT22;3122;48.208;11.174;2023-01-05T10:49:32;10.20;1.00
6178;DHT22;3122;48.208;11.174;2023-01-05T10:54:44;10.20;1.00
6178;DHT22;3122;48.208;11.174;2023-01-05T10:59:56;10.20;1.00
6178;DHT22;3122;48.208;11.174;2023-01-05T11:05:03;10.20;1.00
6178;DHT22;3122;48.208;11.174;2023-01-05T11:10:19;10.20;1.00
6178;DHT22;3122;48.208;11.174;2023-01-05T11:15:20;10.20;1.00
6178;DHT22;3122;48.208;11.174;2023-01-05T11:20:21;10.00;1.00
6178;DHT22;3122;48.208;11.174;2023-01-05T11:25:27;9.90;1.00
6178;DHT22;3122;48.208;11.174;2023-01-05T11:30:28;9.90;1.00
6178;DHT22;3122;48.208;11.174;2023-01-05T11:35:31;9.90;1.00
6178;DHT22;3122;48.208;11.174;2023-01-05T11:40:34;9.90;1.00
6178;DHT22;3122;48.208;11.174;2023-01-05T11:46:00;9.90;1.00
6178;DHT22;3122;48.208;11.174;2023-01-05T11:51:04;10.00;1.00
6178;DHT22;3122;48.208;11.174;2023-01-05T11:56:20;10.00;1.00
6178;DHT22;3122;48.208;11.174;2023-01-05T12:17:32;10.50;1.00
6178;DHT22;3122;48.208;11.174;2023-01-05T12:22:45;10.50;1.00
6178;DHT22;3122;48.208;11.174;2023-01-05T12:44:20;10.40;1.00
6178;DHT22;3122;48.208;11.174;2023-01-05T12:49:30;10.40;1.00
6178;DHT22;3122;48.208;11.174;2023-01-05T12:54:52;10.50;1.00
6178;DHT22;3122;48.208;11.174;2023-01-05T13:00:05;10.50;1.00
6178;DHT22;3122;48.208;11.174;2023-01-05T13:05:34;10.60;1.00
6178;DHT22;3122;48.208;11.174;2023-01-05T13:16:17;10.80;1.00
6178;DHT22;3122;48.208;11.174;2023-01-05T13:21:20;10.90;1.00
6178;DHT22;3122;48.208;11.174;2023-01-05T13:26:22;10.80;1.00
6178;DHT22;3122;48.208;11.174;2023-01-05T13:57:45;10.40;1.00
6178;DHT22;3122;48.208;11.174;2023-01-05T14:03:03;10.30;1.00
6178;DHT22;3122;48.208;11.174;2023-01-05T14:08:21;10.30;1.00
6178;DHT22;3122;48.208;11.174;2023-01-05T14:34:52;10.00;1.00
6178;DHT22;3122;48.208;11.174;2023-01-05T14:39:53;9.90;1.00
6178;DHT22;3122;48.208;11.174;2023-01-05T14:45:04;9.80;1.00
6178;DHT22;3122;48.208;11.174;2023-01-05T14:50:27;9.60;1.00
6178;DHT22;3122;48.208;11.174;2023-01-05T14:55:34;9.60;1.00
6178;DHT22;3122;48.208;11.174;2023-01-05T15:00:44;9.40;1.00
6178;DHT22;3122;48.208;11.174;2023-01-05T15:06:08;9.40;1.00
6178;DHT22;3122;48.208;11.174;2023-01-05T15:37:33;8.90;1.00
6178;DHT22;3122;48.208;11.174;2023-01-05T15:42:42;8.90;1.00
6178;DHT22;3122;48.208;11.174;2023-01-05T15:47:44;9.00;1.00
6178;DHT22;3122;48.208;11.174;2023-01-05T15:52:57;9.00;1.00
6178;DHT22;3122;48.208;11.174;2023-01-05T15:58:01;9.00;1.00
6178;DHT22;3122;48.208;11.174;2023-01-05T16:03:30;8.90;1.00
6178;DHT22;3122;48.208;11.174;2023-01-05T16:08:35;8.90;1.00
6178;DHT22;3122;48.208;11.174;2023-01-05T16:13:43;8.80;1.00
6178;DHT22;3122;48.208;11.174;2023-01-05T16:18:49;8.70;1.00
6178;DHT22;3122;48.208;11.174;2023-01-05T16:24:01;8.70;1.00
6178;DHT22;3122;48.208;11.174;2023-01-05T16:34:34;8.50;1.00
6178;DHT22;3122;48.208;11.174;2023-01-05T16:39:37;8.50;1.00
6178;DHT22;3122;48.208;11.174;2023-01-05T16:44:39;8.50;1.00
6178;DHT22;3122;48.208;11.174;2023-01-05T16:49:39;8.50;1.00
6178;DHT22;3122;48.208;11.174;2023-01-05T16:54:40;8.50;1.00
6178;DHT22;3122;48.208;11.174;2023-01-05T16:59:47;8.50;1.00
6178;DHT22;3122;48.208;11.174;2023-01-05T17:04:49;8.50;1.00
6178;DHT22;3122;48.208;11.174;2023-01-05T17:09:50;8.40;1.00
6178;DHT22;3122;48.208;11.174;2023-01-05T17:14:50;8.40;1.00
6178;DHT22;3122;48.208;11.174;2023-01-05T17:19:51;8.50;1.00
6178;DHT22;3122;48.208;11.174;2023-01-05T17:24:53;8.50;1.00
6178;DHT22;3122;48.208;11.174;2023-01-05T17:29:53;8.40;1.00
6178;DHT22;3122;48.208;11.174;2023-01-05T17:34:54;8.40;1.00
6178;DHT22;3122;48.208;11.174;2023-01-05T17:39:54;8.40;1.00
6178;DHT22;3122;48.208;11.174;2023-01-05T17:44:55;8.40;1.00
6178;DHT22;3122;48.208;11.174;2023-01-05T17:49:56;8.30;1.00
6178;DHT22;3122;48.208;11.174;2023-01-05T17:54:56;8.40;1.00
6178;DHT22;3122;48.208;11.174;2023-01-05T17:59:57;8.40;1.00
6178;DHT22;3122;48.208;11.174;2023-01-05T18:04:58;8.40;1.00
6178;DHT22;3122;48.208;11.174;2023-01-05T18:09:58;8.30;1.00
6178;DHT22;3122;48.208;11.174;2023-01-05T18:14:59;8.30;1.00
6178;DHT22;3122;48.208;11.174;2023-01-05T18:20:00;8.30;1.00
6178;DHT22;3122;48.208;11.174;2023-01-05T18:25:00;8.50;1.00
6178;DHT22;3122;48.208;11.174;2023-01-05T18:30:03;8.40;1.00
6178;DHT22;3122;48.208;11.174;2023-01-05T18:35:04;8.40;1.00
6178;DHT22;3122;48.208;11.174;2023-01-05T18:40:06;8.40;1.00
6178;DHT22;3122;48.208;11.174;2023-01-05T18:45:08;8.60;1.00
6178;DHT22;3122;48.208;11.174;2023-01-05T18:50:09;8.70;1.00
6178;DHT22;3122;48.208;11.174;2023-01-05T18:55:10;9.00;1.00
6178;DHT22;3122;48.208;11.174;2023-01-05T19:00:11;9.00;1.00
6178;DHT22;3122;48.208;11.174;2023-01-05T19:05:12;9.00;1.00
6178;DHT22;3122;48.208;11.174;2023-01-05T19:10:12;9.00;1.00
6178;DHT22;3122;48.208;11.174;2023-01-05T19:15:13;9.10;1.00
6178;DHT22;3122;48.208;11.174;2023-01-05T19:20:13;9.10;1.00
6178;DHT22;3122;48.208;11.174;2023-01-05T19:25:14;9.00;1.00
6178;DHT22;3122;48.208;11.174;2023-01-05T19:30:15;9.20;1.00
6178;DHT22;3122;48.208;11.174;2023-01-05T19:35:17;9.20;1.00
6178;DHT22;3122;48.208;11.174;2023-01-05T19:40:17;9.10;1.00
6178;DHT22;3122;48.208;11.174;2023-01-05T19:45:18;9.10;1.00
6178;DHT22;3122;48.208;11.174;2023-01-05T19:50:18;9.10;1.00
6178;DHT22;3122;48.208;11.174;2023-01-05T19:55:19;9.00;1.00
6178;DHT22;3122;48.208;11.174;2023-01-05T20:00:19;9.10;1.00
6178;DHT22;3122;48.208;11.174;2023-01-05T20:05:20;9.10;1.00
6178;DHT22;3122;48.208;11.174;2023-01-05T20:10:20;9.10;1.00
6178;DHT22;3122;48.208;11.174;2023-01-05T20:15:22;9.10;1.00
6178;DHT22;3122;48.208;11.174;2023-01-05T20:20:22;9.10;1.00
6178;DHT22;3122;48.208;11.174;2023-01-05T20:25:23;9.20;1.00
6178;DHT22;3122;48.208;11.174;2023-01-05T20:30:24;9.20;1.00
6178;DHT22;3122;48.208;11.174;2023-01-05T20:35:24;9.20;1.00
6178;DHT22;3122;48.208;11.174;2023-01-05T20:40:25;9.20;1.00
6178;DHT22;3122;48.208;11.174;2023-01-05T20:45:25;9.20;1.00
6178;DHT22;3122;48.208;11.174;2023-01-05T20:50:26;9.20;1.00
6178;DHT22;3122;48.208;11.174;2023-01-05T20:55:26;9.10;1.00
6178;DHT22;3122;48.208;11.174;2023-01-05T21:00:27;9.10;1.00
6178;DHT22;3122;48.208;11.174;2023-01-05T21:05:28;9.10;1.00
6178;DHT22;3122;48.208;11.174;2023-01-05T21:10:29;9.10;1.00
6178;DHT22;3122;48.208;11.174;2023-01-05T21:15:29;9.00;1.00
6178;DHT22;3122;48.208;11.174;2023-01-05T21:20:30;8.90;1.00
6178;DHT22;3122;48.208;11.174;2023-01-05T21:25:30;9.00;1.00
6178;DHT22;3122;48.208;11.174;2023-01-05T21:30:31;8.90;1.00
6178;DHT22;3122;48.208;11.174;2023-01-05T21:35:32;8.90;1.00
6178;DHT22;3122;48.208;11.174;2023-01-05T21:40:33;8.80;1.00
6178;DHT22;3122;48.208;11.174;2023-01-05T21:45:33;8.70;1.00
6178;DHT22;3122;48.208;11.174;2023-01-05T21:50:34;8.80;1.00
6178;DHT22;3122;48.208;11.174;2023-01-05T21:55:53;8.90;1.00
6178;DHT22;3122;48.208;11.174;2023-01-05T22:01:12;8.80;1.00
6178;DHT22;3122;48.208;11.174;2023-01-05T22:06:13;8.90;1.00
6178;DHT22;3122;48.208;11.174;2023-01-05T22:11:14;8.90;1.00
6178;DHT22;3122;48.208;11.174;2023-01-05T22:16:14;8.90;1.00
6178;DHT22;3122;48.208;11.174;2023-01-05T22:21:15;8.80;1.00
6178;DHT22;3122;48.208;11.174;2023-01-05T22:26:18;8.70;1.00
6178;DHT22;3122;48.208;11.174;2023-01-05T22:31:25;8.60;1.00
6178;DHT22;3122;48.208;11.174;2023-01-05T22:36:28;8.50;1.00
6178;DHT22;3122;48.208;11.174;2023-01-05T22:41:29;8.40;1.00
6178;DHT22;3122;48.208;11.174;2023-01-05T22:46:30;8.50;1.00
6178;DHT22;3122;48.208;11.174;2023-01-05T22:51:33;8.50;1.00
6178;DHT22;3122;48.208;11.174;2023-01-05T22:56:34;8.40;1.00
6178;DHT22;3122;48.208;11.174;2023-01-05T23:01:40;8.30;1.00
6178;DHT22;3122;48.208;11.174;2023-01-05T23:06:44;8.30;1.00
6178;DHT22;3122;48.208;11.174;2023-01-05T23:11:45;8.30;1.00
6178;DHT22;3122;48.208;11.174;2023-01-05T23:16:46;8.40;1.00
6178;DHT22;3122;48.208;11.174;2023-01-05T23:21:47;8.30;1.00
6178;DHT22;3122;48.208;11.174;2023-01-05T23:26:47;8.30;1.00
6178;DHT22;3122;48.208;11.174;2023-01-05T23:31:48;8.30;1.00
6178;DHT22;3122;48.208;11.174;2023-01-05T23:36:49;8.30;1.00
6178;DHT22;3122;48.208;11.174;2023-01-05T23:41:49;8.40;1.00
6178;DHT22;3122;48.208;11.174;2023-01-05T23:46:50;8.40;1.00
6178;DHT22;3122;48.208;11.174;2023-01-05T23:51:50;8.40;1.00
6178;DHT22;3122;48.208;11.174;2023-01-05T23:56:51;8.50;1.00
